AIZ413 LLBG-UGSB
Flight info
| Callsign | AIZ413 |
|---|---|
| Flight time | 1h 53m |
| Altitude | 34000 |
| Route | DAFNA DCT VELOX N71 DESPO DCT VOLBE DCT VESAR UL619 EVKIT UT284 SIV UW706 TBN UG67 SARPI |
| Aircraft | A21N/M-SDE2E3FGHIRWXY/LB1 |
Departure
| Time | 2026-05-05 15:44 |
|---|---|
| Airport | Ben Gurion International Airport (LLBG) |
Arrival
| Time | 2026-05-05 17:38 |
|---|---|
| Airport | Alexander Kartveli Batumi International Airport (UGSB) |
| Time | Latitude | Longitude | Altitude | Speed | Heading |
|---|---|---|---|---|---|
| 2026-05-05 15:24 | 32.00599 | 34.87493 | 119 ft | 0 kts | 243° |
| 2026-05-05 15:25 | 32.00603 | 34.87501 | 119 ft | 0 kts | 243° |
| 2026-05-05 15:36 | 32.00613 | 34.87525 | 118 ft | 4 kts | 244° |
| 2026-05-05 15:37 | 32.00623 | 34.87548 | 118 ft | 4 kts | 239° |
| 2026-05-05 15:37 | 32.00640 | 34.87568 | 118 ft | 4 kts | 187° |
| 2026-05-05 15:37 | 32.00659 | 34.87560 | 119 ft | 4 kts | 121° |
| 2026-05-05 15:37 | 32.00654 | 34.87571 | 119 ft | 4 kts | 122° |
| 2026-05-05 15:38 | 32.00639 | 34.87597 | 121 ft | 4 kts | 122° |
| 2026-05-05 15:38 | 32.00628 | 34.87619 | 120 ft | 0 kts | 121° |
| 2026-05-05 15:40 | 32.00619 | 34.87636 | 119 ft | 6 kts | 121° |
| 2026-05-05 15:40 | 32.00594 | 34.87684 | 118 ft | 16 kts | 122° |
| 2026-05-05 15:40 | 32.00530 | 34.87810 | 119 ft | 18 kts | 111° |
| 2026-05-05 15:41 | 32.00560 | 34.87898 | 121 ft | 11 kts | 36° |
| 2026-05-05 15:41 | 32.00642 | 34.87957 | 121 ft | 20 kts | 31° |
| 2026-05-05 15:41 | 32.00832 | 34.88095 | 120 ft | 29 kts | 31° |
| 2026-05-05 15:41 | 32.00952 | 34.88183 | 121 ft | 31 kts | 32° |
| 2026-05-05 15:42 | 32.01174 | 34.88342 | 123 ft | 44 kts | 32° |
| 2026-05-05 15:42 | 32.01395 | 34.88571 | 120 ft | 42 kts | 52° |
| 2026-05-05 15:42 | 32.01503 | 34.88889 | 120 ft | 42 kts | 78° |
| 2026-05-05 15:42 | 32.01531 | 34.89071 | 123 ft | 22 kts | 79° |
| 2026-05-05 15:43 | 32.01536 | 34.89099 | 121 ft | 21 kts | 73° |
| 2026-05-05 15:43 | 32.01591 | 34.89167 | 122 ft | 7 kts | 357° |
| 2026-05-05 15:43 | 32.01712 | 34.89139 | 119 ft | 10 kts | 347° |
| 2026-05-05 15:43 | 32.01747 | 34.89115 | 120 ft | 1 kts | 277° |
| 2026-05-05 15:44 | 32.01738 | 34.89047 | 121 ft | 23 kts | 255° |
| 2026-05-05 15:44 | 32.01658 | 34.88515 | 123 ft | 110 kts | 260° |
| 2026-05-05 15:44 | 32.01489 | 34.87418 | 658 ft | 136 kts | 262° |
| 2026-05-05 15:44 | 32.01317 | 34.86351 | 1802 ft | 129 kts | 260° |
| 2026-05-05 15:45 | 32.01081 | 34.85345 | 2952 ft | 128 kts | 256° |
| 2026-05-05 15:45 | 32.00813 | 34.84334 | 4077 ft | 137 kts | 256° |
| 2026-05-05 15:45 | 32.00568 | 34.83118 | 4674 ft | 174 kts | 259° |
| 2026-05-05 15:45 | 32.00297 | 34.81600 | 5276 ft | 202 kts | 259° |
| 2026-05-05 15:46 | 31.99981 | 34.79897 | 6052 ft | 224 kts | 258° |
| 2026-05-05 15:46 | 31.99617 | 34.78013 | 6846 ft | 245 kts | 258° |
| 2026-05-05 15:46 | 31.99231 | 34.76005 | 7980 ft | 254 kts | 261° |
| 2026-05-05 15:46 | 31.99332 | 34.73932 | 9284 ft | 259 kts | 286° |
| 2026-05-05 15:47 | 31.99928 | 34.71892 | 10423 ft | 270 kts | 291° |
| 2026-05-05 15:47 | 32.00649 | 34.69729 | 11046 ft | 299 kts | 292° |
| 2026-05-05 15:47 | 32.01605 | 34.67434 | 11603 ft | 325 kts | 302° |
| 2026-05-05 15:47 | 32.03133 | 34.65389 | 12545 ft | 339 kts | 317° |
| 2026-05-05 15:48 | 32.05006 | 34.63650 | 13691 ft | 346 kts | 321° |
| 2026-05-05 15:48 | 32.06975 | 34.61987 | 14652 ft | 352 kts | 322° |
| 2026-05-05 15:48 | 32.09005 | 34.60313 | 15547 ft | 358 kts | 322° |
| 2026-05-05 15:48 | 32.11065 | 34.58624 | 16487 ft | 364 kts | 322° |
| 2026-05-05 15:49 | 32.13162 | 34.56908 | 17430 ft | 368 kts | 322° |
| 2026-05-05 15:49 | 32.15258 | 34.55191 | 18314 ft | 374 kts | 322° |
| 2026-05-05 15:49 | 32.17408 | 34.53429 | 19079 ft | 379 kts | 321° |
| 2026-05-05 15:49 | 32.19586 | 34.51643 | 19837 ft | 384 kts | 321° |
| 2026-05-05 15:50 | 32.21797 | 34.49829 | 20579 ft | 389 kts | 321° |
| 2026-05-05 15:50 | 32.24035 | 34.47991 | 21326 ft | 394 kts | 321° |
| 2026-05-05 15:50 | 32.26299 | 34.46131 | 22053 ft | 399 kts | 321° |
| 2026-05-05 15:50 | 32.28593 | 34.44245 | 22771 ft | 404 kts | 321° |
| 2026-05-05 15:51 | 32.30909 | 34.42340 | 23487 ft | 409 kts | 321° |
| 2026-05-05 15:51 | 32.33255 | 34.40410 | 24188 ft | 411 kts | 321° |
| 2026-05-05 15:51 | 32.35605 | 34.38476 | 24808 ft | 413 kts | 320° |
| 2026-05-05 15:51 | 32.37961 | 34.36536 | 25174 ft | 412 kts | 320° |
| 2026-05-05 15:52 | 32.40328 | 34.34584 | 25596 ft | 416 kts | 320° |
| 2026-05-05 15:52 | 32.42711 | 34.32617 | 26229 ft | 418 kts | 320° |
| 2026-05-05 15:52 | 32.45107 | 34.30639 | 26871 ft | 420 kts | 320° |
| 2026-05-05 15:52 | 32.47503 | 34.28659 | 27464 ft | 421 kts | 319° |
| 2026-05-05 15:53 | 32.49914 | 34.26666 | 28011 ft | 424 kts | 319° |
| 2026-05-05 15:53 | 32.52337 | 34.24661 | 28550 ft | 426 kts | 319° |
| 2026-05-05 15:53 | 32.54730 | 34.22589 | 29075 ft | 428 kts | 320° |
| 2026-05-05 15:53 | 32.57462 | 34.21056 | 29653 ft | 445 kts | 337° |
| 2026-05-05 15:54 | 32.60565 | 34.20499 | 30358 ft | 457 kts | 351° |
| 2026-05-05 15:54 | 32.63719 | 34.20514 | 30842 ft | 462 kts | 355° |
| 2026-05-05 15:54 | 32.66931 | 34.20664 | 31361 ft | 461 kts | 355° |
| 2026-05-05 15:54 | 32.70119 | 34.20740 | 31945 ft | 456 kts | 353° |
| 2026-05-05 15:55 | 32.73280 | 34.20677 | 32505 ft | 452 kts | 350° |
| 2026-05-05 15:55 | 32.76418 | 34.20484 | 33047 ft | 449 kts | 348° |
| 2026-05-05 15:55 | 32.79521 | 34.20198 | 33568 ft | 446 kts | 347° |
| 2026-05-05 15:55 | 32.82607 | 34.19858 | 33953 ft | 447 kts | 346° |
| 2026-05-05 15:56 | 32.85694 | 34.19492 | 34030 ft | 444 kts | 346° |
| 2026-05-05 15:56 | 32.91836 | 34.18750 | 34020 ft | 444 kts | 346° |
| 2026-05-05 15:57 | 32.97990 | 34.18023 | 34019 ft | 444 kts | 346° |
| 2026-05-05 15:57 | 33.04139 | 34.17312 | 34018 ft | 444 kts | 346° |
| 2026-05-05 15:58 | 33.10291 | 34.16606 | 34019 ft | 444 kts | 346° |
| 2026-05-05 15:58 | 33.16447 | 34.15899 | 34014 ft | 444 kts | 346° |
| 2026-05-05 15:59 | 33.22569 | 34.15195 | 34016 ft | 444 kts | 346° |
| 2026-05-05 15:59 | 33.28732 | 34.14484 | 34012 ft | 445 kts | 346° |
| 2026-05-05 16:00 | 33.34890 | 34.13773 | 34014 ft | 445 kts | 346° |
| 2026-05-05 16:00 | 33.41061 | 34.13059 | 34016 ft | 444 kts | 346° |
| 2026-05-05 16:01 | 33.47213 | 34.12346 | 34016 ft | 444 kts | 346° |
| 2026-05-05 16:01 | 33.53372 | 34.11630 | 34015 ft | 445 kts | 347° |
| 2026-05-05 16:02 | 33.59498 | 34.10917 | 34013 ft | 445 kts | 347° |
| 2026-05-05 16:02 | 33.65666 | 34.10201 | 34010 ft | 445 kts | 347° |
| 2026-05-05 16:03 | 33.71841 | 34.09480 | 34009 ft | 448 kts | 347° |
| 2026-05-05 16:03 | 33.78071 | 34.08751 | 34014 ft | 449 kts | 348° |
| 2026-05-05 16:04 | 33.84364 | 34.09017 | 34009 ft | 466 kts | 8° |
| 2026-05-05 16:04 | 33.90511 | 34.11797 | 34005 ft | 476 kts | 18° |
| 2026-05-05 16:05 | 33.96516 | 34.15043 | 34017 ft | 475 kts | 18° |
| 2026-05-05 16:05 | 34.02583 | 34.18134 | 33998 ft | 471 kts | 16° |
| 2026-05-05 16:06 | 34.08673 | 34.21054 | 33998 ft | 470 kts | 15° |
| 2026-05-05 16:06 | 34.14735 | 34.23901 | 34012 ft | 471 kts | 15° |
| 2026-05-05 16:07 | 34.20828 | 34.26768 | 33996 ft | 470 kts | 15° |
| 2026-05-05 16:07 | 34.26934 | 34.29655 | 33996 ft | 470 kts | 15° |
| 2026-05-05 16:08 | 34.33033 | 34.32548 | 34026 ft | 470 kts | 15° |
| 2026-05-05 16:08 | 34.39092 | 34.35430 | 33995 ft | 467 kts | 15° |
| 2026-05-05 16:09 | 34.45180 | 34.38094 | 33990 ft | 456 kts | 4° |
| 2026-05-05 16:09 | 34.48286 | 34.38285 | 33995 ft | 442 kts | 348° |
| 2026-05-05 16:09 | 34.51294 | 34.37673 | 33994 ft | 435 kts | 341° |
| 2026-05-05 16:10 | 34.57106 | 34.35713 | 33990 ft | 433 kts | 338° |
| 2026-05-05 16:10 | 34.62941 | 34.33844 | 33991 ft | 434 kts | 341° |
| 2026-05-05 16:11 | 34.68821 | 34.32267 | 33984 ft | 436 kts | 342° |
| 2026-05-05 16:12 | 34.80711 | 34.29373 | 33986 ft | 434 kts | 342° |
| 2026-05-05 16:13 | 34.95514 | 34.25722 | 33985 ft | 434 kts | 342° |
| 2026-05-05 16:13 | 35.01426 | 34.24254 | 33990 ft | 432 kts | 342° |
| 2026-05-05 16:14 | 35.13156 | 34.21337 | 33971 ft | 431 kts | 343° |
| 2026-05-05 16:15 | 35.24947 | 34.18394 | 33984 ft | 432 kts | 343° |
| 2026-05-05 16:16 | 35.36680 | 34.15461 | 33982 ft | 431 kts | 343° |
| 2026-05-05 16:17 | 35.45507 | 34.13247 | 33985 ft | 431 kts | 343° |
| 2026-05-05 16:18 | 35.54333 | 34.11028 | 33976 ft | 431 kts | 343° |
| 2026-05-05 16:19 | 35.63154 | 34.08805 | 33979 ft | 431 kts | 343° |
| 2026-05-05 16:19 | 35.71969 | 34.06580 | 33974 ft | 429 kts | 343° |
| 2026-05-05 16:20 | 35.83629 | 34.03628 | 33972 ft | 429 kts | 343° |
| 2026-05-05 16:22 | 35.97395 | 33.97728 | 33968 ft | 413 kts | 324° |
| 2026-05-05 16:23 | 36.06989 | 33.90010 | 33964 ft | 410 kts | 325° |
| 2026-05-05 16:23 | 36.14229 | 33.84463 | 33960 ft | 410 kts | 326° |
| 2026-05-05 16:24 | 36.19091 | 33.80781 | 33960 ft | 410 kts | 326° |
| 2026-05-05 16:25 | 36.26559 | 33.75615 | 33968 ft | 416 kts | 341° |
| 2026-05-05 16:25 | 36.32399 | 33.75937 | 33965 ft | 440 kts | 14° |
| 2026-05-05 16:25 | 36.35136 | 33.77755 | 33961 ft | 456 kts | 30° |
| 2026-05-05 16:26 | 36.39491 | 33.83709 | 33971 ft | 471 kts | 45° |
| 2026-05-05 16:26 | 36.43847 | 33.89650 | 33958 ft | 464 kts | 36° |
| 2026-05-05 16:27 | 36.48817 | 33.94651 | 33962 ft | 457 kts | 29° |
| 2026-05-05 16:27 | 36.54046 | 33.99109 | 33988 ft | 455 kts | 27° |
| 2026-05-05 16:28 | 36.59331 | 34.03468 | 33971 ft | 456 kts | 27° |
| 2026-05-05 16:28 | 36.64612 | 34.07878 | 33972 ft | 457 kts | 27° |
| 2026-05-05 16:29 | 36.68990 | 34.11580 | 33972 ft | 457 kts | 27° |
| 2026-05-05 16:29 | 36.74218 | 34.16030 | 33973 ft | 452 kts | 28° |
| 2026-05-05 16:30 | 36.79400 | 34.20446 | 33989 ft | 450 kts | 27° |
| 2026-05-05 16:30 | 36.84597 | 34.24875 | 33977 ft | 455 kts | 28° |
| 2026-05-05 16:31 | 36.89818 | 34.29336 | 33978 ft | 452 kts | 28° |
| 2026-05-05 16:31 | 36.94964 | 34.33743 | 33972 ft | 451 kts | 28° |
| 2026-05-05 16:32 | 37.00148 | 34.38185 | 33990 ft | 452 kts | 28° |
| 2026-05-05 16:32 | 37.05338 | 34.42639 | 33977 ft | 451 kts | 28° |
| 2026-05-05 16:33 | 37.10522 | 34.47100 | 33992 ft | 451 kts | 28° |
| 2026-05-05 16:33 | 37.15675 | 34.51538 | 33990 ft | 452 kts | 29° |
| 2026-05-05 16:34 | 37.20864 | 34.56013 | 33991 ft | 453 kts | 30° |
| 2026-05-05 16:34 | 37.26063 | 34.60506 | 33995 ft | 453 kts | 30° |
| 2026-05-05 16:35 | 37.31260 | 34.65012 | 33996 ft | 453 kts | 30° |
| 2026-05-05 16:35 | 37.36450 | 34.69514 | 33999 ft | 453 kts | 30° |
| 2026-05-05 16:36 | 37.41614 | 34.73998 | 34002 ft | 453 kts | 30° |
| 2026-05-05 16:36 | 37.46824 | 34.78529 | 34003 ft | 455 kts | 31° |
| 2026-05-05 16:37 | 37.52024 | 34.83065 | 33996 ft | 454 kts | 30° |
| 2026-05-05 16:37 | 37.57213 | 34.87599 | 33987 ft | 454 kts | 30° |
| 2026-05-05 16:38 | 37.62400 | 34.92136 | 34015 ft | 453 kts | 30° |
| 2026-05-05 16:38 | 37.67572 | 34.96668 | 33987 ft | 452 kts | 30° |
| 2026-05-05 16:39 | 37.72744 | 35.01210 | 33999 ft | 454 kts | 30° |
| 2026-05-05 16:39 | 37.77954 | 35.05788 | 34008 ft | 456 kts | 31° |
| 2026-05-05 16:40 | 37.83128 | 35.10346 | 33994 ft | 456 kts | 31° |
| 2026-05-05 16:40 | 37.88327 | 35.14936 | 33980 ft | 456 kts | 31° |
| 2026-05-05 16:41 | 37.93534 | 35.19540 | 33998 ft | 456 kts | 31° |
| 2026-05-05 16:41 | 37.98731 | 35.24141 | 33993 ft | 456 kts | 31° |
| 2026-05-05 16:42 | 38.03947 | 35.28767 | 33993 ft | 459 kts | 31° |
| 2026-05-05 16:42 | 38.09178 | 35.33415 | 33984 ft | 459 kts | 32° |
| 2026-05-05 16:43 | 38.14416 | 35.38079 | 33977 ft | 460 kts | 32° |
| 2026-05-05 16:43 | 38.19658 | 35.42755 | 33976 ft | 460 kts | 32° |
| 2026-05-05 16:44 | 38.24899 | 35.47439 | 33974 ft | 459 kts | 32° |
| 2026-05-05 16:44 | 38.30106 | 35.52100 | 33978 ft | 461 kts | 32° |
| 2026-05-05 16:45 | 38.35366 | 35.56822 | 33977 ft | 462 kts | 32° |
| 2026-05-05 16:45 | 38.40621 | 35.61556 | 33982 ft | 462 kts | 32° |
| 2026-05-05 16:46 | 38.45873 | 35.66295 | 33980 ft | 462 kts | 32° |
| 2026-05-05 16:46 | 38.51120 | 35.71039 | 33989 ft | 462 kts | 32° |
| 2026-05-05 16:47 | 38.56374 | 35.75795 | 33985 ft | 463 kts | 33° |
| 2026-05-05 16:47 | 38.61608 | 35.80541 | 33983 ft | 465 kts | 33° |
| 2026-05-05 16:48 | 38.66890 | 35.85341 | 33984 ft | 466 kts | 33° |
| 2026-05-05 16:48 | 38.72178 | 35.90157 | 33983 ft | 466 kts | 33° |
| 2026-05-05 16:49 | 38.77460 | 35.94975 | 33982 ft | 466 kts | 33° |
| 2026-05-05 16:49 | 38.82741 | 35.99800 | 33988 ft | 466 kts | 33° |
| 2026-05-05 16:50 | 38.88013 | 36.04628 | 33985 ft | 466 kts | 33° |
| 2026-05-05 16:50 | 38.93284 | 36.09463 | 33987 ft | 466 kts | 33° |
| 2026-05-05 16:51 | 38.98552 | 36.14303 | 33987 ft | 466 kts | 33° |
| 2026-05-05 16:51 | 39.03825 | 36.19158 | 33991 ft | 466 kts | 34° |
| 2026-05-05 16:52 | 39.09063 | 36.23990 | 33999 ft | 466 kts | 34° |
| 2026-05-05 16:52 | 39.14347 | 36.28873 | 33994 ft | 467 kts | 34° |
| 2026-05-05 16:53 | 39.19624 | 36.33759 | 33998 ft | 467 kts | 34° |
| 2026-05-05 16:53 | 39.24913 | 36.38664 | 34001 ft | 468 kts | 34° |
| 2026-05-05 16:54 | 39.30219 | 36.43595 | 33998 ft | 469 kts | 34° |
| 2026-05-05 16:54 | 39.35476 | 36.48491 | 34002 ft | 469 kts | 34° |
| 2026-05-05 16:55 | 39.40791 | 36.53449 | 34002 ft | 472 kts | 34° |
| 2026-05-05 16:55 | 39.46123 | 36.58433 | 34001 ft | 473 kts | 35° |
| 2026-05-05 16:56 | 39.51465 | 36.63436 | 34000 ft | 474 kts | 36° |
| 2026-05-05 16:56 | 39.56827 | 36.68467 | 33997 ft | 475 kts | 36° |
| 2026-05-05 16:57 | 39.62179 | 36.73499 | 34000 ft | 476 kts | 36° |
| 2026-05-05 16:57 | 39.67511 | 36.78521 | 33996 ft | 476 kts | 36° |
| 2026-05-05 16:58 | 39.72869 | 36.83579 | 33994 ft | 477 kts | 36° |
| 2026-05-05 16:58 | 39.78216 | 36.88679 | 33990 ft | 476 kts | 39° |
| 2026-05-05 16:59 | 39.80473 | 36.91813 | 33997 ft | 475 kts | 54° |
| 2026-05-05 16:59 | 39.82265 | 36.95421 | 33994 ft | 474 kts | 61° |
| 2026-05-05 16:59 | 39.85306 | 37.03037 | 33993 ft | 474 kts | 64° |
| 2026-05-05 17:00 | 39.88321 | 37.10698 | 33995 ft | 475 kts | 63° |
| 2026-05-05 17:00 | 39.91457 | 37.18207 | 33995 ft | 475 kts | 62° |
| 2026-05-05 17:01 | 39.94695 | 37.25731 | 33987 ft | 476 kts | 62° |
| 2026-05-05 17:01 | 39.97940 | 37.33244 | 33984 ft | 476 kts | 62° |
| 2026-05-05 17:02 | 40.01183 | 37.40783 | 33982 ft | 476 kts | 62° |
| 2026-05-05 17:02 | 40.04413 | 37.48324 | 33984 ft | 476 kts | 62° |
| 2026-05-05 17:03 | 40.07619 | 37.55836 | 33979 ft | 476 kts | 62° |
| 2026-05-05 17:03 | 40.10842 | 37.63371 | 33979 ft | 475 kts | 62° |
| 2026-05-05 17:04 | 40.14071 | 37.70911 | 33979 ft | 476 kts | 62° |
| 2026-05-05 17:04 | 40.17301 | 37.78468 | 33968 ft | 476 kts | 62° |
| 2026-05-05 17:05 | 40.20520 | 37.86025 | 33968 ft | 476 kts | 62° |
| 2026-05-05 17:05 | 40.23739 | 37.93597 | 33965 ft | 476 kts | 62° |
| 2026-05-05 17:06 | 40.26951 | 38.01178 | 33969 ft | 476 kts | 62° |
| 2026-05-05 17:06 | 40.30161 | 38.08770 | 33969 ft | 476 kts | 62° |
| 2026-05-05 17:07 | 40.33335 | 38.16327 | 33968 ft | 476 kts | 63° |
| 2026-05-05 17:07 | 40.36439 | 38.24005 | 33967 ft | 476 kts | 64° |
| 2026-05-05 17:08 | 40.39561 | 38.31677 | 33972 ft | 477 kts | 63° |
| 2026-05-05 17:08 | 40.42817 | 38.39265 | 33975 ft | 477 kts | 62° |
| 2026-05-05 17:09 | 40.46097 | 38.46835 | 33984 ft | 477 kts | 62° |
| 2026-05-05 17:09 | 40.49368 | 38.54432 | 33994 ft | 477 kts | 62° |
| 2026-05-05 17:10 | 40.52581 | 38.62064 | 34005 ft | 477 kts | 63° |
| 2026-05-05 17:10 | 40.55701 | 38.69713 | 34009 ft | 477 kts | 64° |
| 2026-05-05 17:11 | 40.58820 | 38.77411 | 34010 ft | 477 kts | 64° |
| 2026-05-05 17:11 | 40.61944 | 38.85114 | 34024 ft | 477 kts | 64° |
| 2026-05-05 17:12 | 40.65071 | 38.92832 | 34029 ft | 477 kts | 64° |
| 2026-05-05 17:12 | 40.68180 | 39.00548 | 34032 ft | 476 kts | 64° |
| 2026-05-05 17:13 | 40.71277 | 39.08261 | 34036 ft | 476 kts | 64° |
| 2026-05-05 17:13 | 40.74372 | 39.15990 | 34044 ft | 476 kts | 64° |
| 2026-05-05 17:14 | 40.77464 | 39.23726 | 34040 ft | 477 kts | 64° |
| 2026-05-05 17:14 | 40.80550 | 39.31470 | 33964 ft | 475 kts | 65° |
| 2026-05-05 17:15 | 40.82053 | 39.35244 | 33379 ft | 469 kts | 65° |
| 2026-05-05 17:15 | 40.83574 | 39.39072 | 33081 ft | 475 kts | 65° |
| 2026-05-05 17:15 | 40.86656 | 39.46853 | 33044 ft | 478 kts | 65° |
| 2026-05-05 17:16 | 40.89737 | 39.54643 | 33051 ft | 478 kts | 65° |
| 2026-05-05 17:16 | 40.92813 | 39.62438 | 33044 ft | 478 kts | 65° |
| 2026-05-05 17:17 | 40.95884 | 39.70241 | 33040 ft | 478 kts | 65° |
| 2026-05-05 17:17 | 40.98434 | 39.76738 | 33050 ft | 478 kts | 65° |
| 2026-05-05 17:18 | 41.01368 | 39.84627 | 33048 ft | 477 kts | 68° |
| 2026-05-05 17:18 | 41.04103 | 39.92633 | 33048 ft | 477 kts | 69° |
| 2026-05-05 17:19 | 41.06795 | 40.00611 | 33046 ft | 476 kts | 69° |
| 2026-05-05 17:19 | 41.09514 | 40.08619 | 33046 ft | 476 kts | 69° |
| 2026-05-05 17:20 | 41.12237 | 40.16610 | 33047 ft | 476 kts | 69° |
| 2026-05-05 17:20 | 41.14961 | 40.24626 | 33042 ft | 476 kts | 69° |
| 2026-05-05 17:21 | 41.17673 | 40.32639 | 33043 ft | 475 kts | 69° |
| 2026-05-05 17:22 | 41.21728 | 40.44663 | 33045 ft | 475 kts | 69° |
| 2026-05-05 17:22 | 41.24412 | 40.52641 | 33046 ft | 475 kts | 69° |
| 2026-05-05 17:23 | 41.27104 | 40.60665 | 33040 ft | 475 kts | 69° |
| 2026-05-05 17:23 | 41.29790 | 40.68694 | 33037 ft | 475 kts | 69° |
| 2026-05-05 17:24 | 41.32467 | 40.76722 | 33037 ft | 475 kts | 69° |
| 2026-05-05 17:24 | 41.35138 | 40.84752 | 33030 ft | 475 kts | 69° |
| 2026-05-05 17:25 | 41.37809 | 40.92810 | 33034 ft | 475 kts | 69° |
| 2026-05-05 17:25 | 41.40472 | 41.00864 | 33034 ft | 475 kts | 69° |
| 2026-05-05 17:26 | 41.43133 | 41.08935 | 33034 ft | 475 kts | 69° |
| 2026-05-05 17:26 | 41.45783 | 41.17005 | 33035 ft | 475 kts | 69° |
| 2026-05-05 17:26 | 41.47080 | 41.20969 | 32659 ft | 468 kts | 69° |
| 2026-05-05 17:27 | 41.48375 | 41.24930 | 31540 ft | 467 kts | 70° |
| 2026-05-05 17:27 | 41.49685 | 41.28948 | 29952 ft | 479 kts | 70° |
| 2026-05-05 17:27 | 41.51022 | 41.33062 | 28588 ft | 482 kts | 70° |
| 2026-05-05 17:27 | 41.52338 | 41.37094 | 27653 ft | 464 kts | 70° |
| 2026-05-05 17:28 | 41.53689 | 41.40918 | 26204 ft | 452 kts | 61° |
| 2026-05-05 17:28 | 41.55661 | 41.44133 | 24823 ft | 444 kts | 44° |
| 2026-05-05 17:28 | 41.58196 | 41.46398 | 23448 ft | 436 kts | 26° |
| 2026-05-05 17:28 | 41.61058 | 41.47589 | 21853 ft | 428 kts | 10° |
| 2026-05-05 17:29 | 41.63966 | 41.48182 | 20351 ft | 418 kts | 9° |
| 2026-05-05 17:29 | 41.66811 | 41.48754 | 18938 ft | 408 kts | 9° |
| 2026-05-05 17:29 | 41.69591 | 41.49315 | 17456 ft | 399 kts | 9° |
| 2026-05-05 17:29 | 41.72307 | 41.49822 | 15970 ft | 389 kts | 5° |
| 2026-05-05 17:30 | 41.74973 | 41.49862 | 14583 ft | 378 kts | 354° |
| 2026-05-05 17:30 | 41.77526 | 41.49246 | 13166 ft | 367 kts | 346° |
| 2026-05-05 17:30 | 41.79900 | 41.48137 | 11691 ft | 358 kts | 333° |
| 2026-05-05 17:30 | 41.81941 | 41.46294 | 10266 ft | 351 kts | 317° |
| 2026-05-05 17:31 | 41.83415 | 41.43757 | 8797 ft | 342 kts | 298° |
| 2026-05-05 17:31 | 41.84177 | 41.40784 | 7272 ft | 337 kts | 279° |
| 2026-05-05 17:31 | 41.84146 | 41.37679 | 6103 ft | 340 kts | 259° |
| 2026-05-05 17:31 | 41.83345 | 41.34721 | 5372 ft | 328 kts | 240° |
| 2026-05-05 17:32 | 41.81975 | 41.32352 | 5057 ft | 321 kts | 223° |
| 2026-05-05 17:32 | 41.80241 | 41.30679 | 5002 ft | 296 kts | 208° |
| 2026-05-05 17:32 | 41.78400 | 41.29771 | 4992 ft | 272 kts | 193° |
| 2026-05-05 17:32 | 41.76549 | 41.29517 | 4992 ft | 267 kts | 178° |
| 2026-05-05 17:33 | 41.74816 | 41.30301 | 4999 ft | 267 kts | 144° |
| 2026-05-05 17:33 | 41.73687 | 41.32238 | 4999 ft | 268 kts | 117° |
| 2026-05-05 17:33 | 41.72971 | 41.34552 | 4998 ft | 270 kts | 113° |
| 2026-05-05 17:33 | 41.72253 | 41.36882 | 4997 ft | 270 kts | 115° |
| 2026-05-05 17:34 | 41.71473 | 41.39170 | 4993 ft | 270 kts | 116° |
| 2026-05-05 17:34 | 41.70656 | 41.41408 | 4634 ft | 265 kts | 118° |
| 2026-05-05 17:34 | 41.69836 | 41.43556 | 4194 ft | 249 kts | 119° |
| 2026-05-05 17:34 | 41.69073 | 41.45511 | 3776 ft | 230 kts | 119° |
| 2026-05-05 17:35 | 41.68334 | 41.47380 | 3132 ft | 225 kts | 120° |
| 2026-05-05 17:35 | 41.67603 | 41.49208 | 2498 ft | 222 kts | 119° |
| 2026-05-05 17:35 | 41.66772 | 41.50932 | 2089 ft | 221 kts | 129° |
| 2026-05-05 17:35 | 41.65843 | 41.52450 | 1985 ft | 194 kts | 133° |
| 2026-05-05 17:36 | 41.65016 | 41.53752 | 1739 ft | 175 kts | 133° |
| 2026-05-05 17:36 | 41.64275 | 41.54914 | 1528 ft | 157 kts | 133° |
| 2026-05-05 17:36 | 41.63596 | 41.55996 | 1234 ft | 147 kts | 133° |
| 2026-05-05 17:36 | 41.62944 | 41.57008 | 845 ft | 144 kts | 134° |
| 2026-05-05 17:37 | 41.62262 | 41.58026 | 398 ft | 147 kts | 132° |
| 2026-05-05 17:37 | 41.61598 | 41.59041 | 47 ft | 143 kts | 131° |
| 2026-05-05 17:37 | 41.61005 | 41.59958 | 20 ft | 111 kts | 130° |
| 2026-05-05 17:37 | 41.60608 | 41.60571 | 22 ft | 65 kts | 130° |
| 2026-05-05 17:38 | 41.60493 | 41.60778 | 21 ft | 10 kts | 95° |
| 2026-05-05 17:38 | 41.60500 | 41.60875 | 20 ft | 12 kts | 79° |
| 2026-05-05 17:38 | 41.60513 | 41.60930 | 19 ft | 0 kts | 73° |
| 2026-05-05 17:39 | 41.60525 | 41.60974 | 20 ft | 8 kts | 57° |
| 2026-05-05 17:39 | 41.60563 | 41.61000 | 18 ft | 6 kts | 12° |
| 2026-05-05 17:39 | 41.60582 | 41.61022 | 18 ft | 6 kts | 61° |
| 2026-05-05 17:39 | 41.60591 | 41.61064 | 18 ft | 1 kts | 76° |